Terminal Aerodrome Forecast
Issued by NWS Omaha/Valley, NE

Home | Current Version | Previous Version | Graphics & Text | Print | Product List | Glossary On
Versions: 1 2 3 4 5 6 7 8 9 10 11 12 13 14 15 16 17
000
FTUS43 KOAX 272323
TAFOFK
TAF
KOFK 272323Z 2800/2824 06011KT P6SM VCSH SCT010 OVC030
      TEMPO 2800/2802 5SM -SHRA BR OVC004
     FM280200 01011KT 6SM -SHRA OVC003
     FM280500 36009KT 5SM -SHRA OVC003
     FM281000 35010KT P6SM VCSH OVC003
     FM281800 35010KT P6SM OVC015=

USA.gov is the U.S. government's official web portal to all federal, state and local government web resources and services.